Childs, Maryland
Current Conditions -  °F | °C
As of 7:51 AM on Saturday 20 Dec 2014 (Local Time) from KILG Reporting Station
Overcast Overcast  
Wind Chill: 28°   Ceiling: 3000
Heat Index: 33°   Visibility: 10mi
Dew Point: 23°   Wind: 6mph
Humidity: 66%   Direction: 360°N
Pressure: 30.3"   Gusts: NA
Location:  39.65°N, 75.87°W
Report Text: KILG 201251Z 36005KT 10SM OVC030 01/M05 A3030 RMK AO2 SLP260 T00061050
Loading
Personal Weather Stations






























Interactive Weather Map New forecast layout! Learn more

10-Day Weather Forecast

Advertisements
Track Severe Weather on mobile